sensor_id;sensor_type;location;lat;lon;timestamp;P1;durP1;ratioP1;P2;durP2;ratioP2
62933;SDS011;49038;47.600;19.242;2023-10-19T00:01:49;5.37;;;3.75;;
62933;SDS011;49038;47.600;19.242;2023-10-19T00:04:52;9.52;;;4.35;;
62933;SDS011;49038;47.600;19.242;2023-10-19T00:07:54;9.73;;;3.72;;
62933;SDS011;49038;47.600;19.242;2023-10-19T00:10:59;5.95;;;3.62;;
62933;SDS011;49038;47.600;19.242;2023-10-19T00:14:06;8.10;;;3.55;;
62933;SDS011;49038;47.600;19.242;2023-10-19T00:17:17;4.90;;;3.72;;
62933;SDS011;49038;47.600;19.242;2023-10-19T00:20:22;5.18;;;3.83;;
62933;SDS011;49038;47.600;19.242;2023-10-19T00:23:52;5.75;;;4.32;;
62933;SDS011;49038;47.600;19.242;2023-10-19T00:27:06;5.18;;;4.18;;
62933;SDS011;49038;47.600;19.242;2023-10-19T00:30:17;4.70;;;3.40;;
62933;SDS011;49038;47.600;19.242;2023-10-19T00:33:23;6.12;;;4.00;;
62933;SDS011;49038;47.600;19.242;2023-10-19T00:36:30;4.47;;;3.53;;
62933;SDS011;49038;47.600;19.242;2023-10-19T00:39:36;7.95;;;4.75;;
62933;SDS011;49038;47.600;19.242;2023-10-19T00:42:56;6.65;;;3.53;;
62933;SDS011;49038;47.600;19.242;2023-10-19T00:45:59;6.45;;;4.72;;
62933;SDS011;49038;47.600;19.242;2023-10-19T00:49:05;8.85;;;4.45;;
62933;SDS011;49038;47.600;19.242;2023-10-19T00:52:08;8.73;;;5.53;;
62933;SDS011;49038;47.600;19.242;2023-10-19T00:55:13;10.02;;;4.75;;
62933;SDS011;49038;47.600;19.242;2023-10-19T00:58:16;10.02;;;4.80;;
62933;SDS011;49038;47.600;19.242;2023-10-19T01:01:26;7.05;;;4.53;;
62933;SDS011;49038;47.600;19.242;2023-10-19T01:04:30;11.20;;;5.12;;
62933;SDS011;49038;47.600;19.242;2023-10-19T01:07:35;8.80;;;4.93;;
62933;SDS011;49038;47.600;19.242;2023-10-19T01:10:40;7.43;;;4.75;;
62933;SDS011;49038;47.600;19.242;2023-10-19T01:13:43;7.43;;;4.53;;
62933;SDS011;49038;47.600;19.242;2023-10-19T01:16:49;6.45;;;4.55;;
62933;SDS011;49038;47.600;19.242;2023-10-19T01:19:53;9.35;;;4.25;;
62933;SDS011;49038;47.600;19.242;2023-10-19T01:26:16;7.35;;;5.30;;
62933;SDS011;49038;47.600;19.242;2023-10-19T01:29:28;9.95;;;5.85;;
62933;SDS011;49038;47.600;19.242;2023-10-19T01:32:30;8.27;;;5.32;;
62933;SDS011;49038;47.600;19.242;2023-10-19T01:35:33;14.68;;;6.87;;
62933;SDS011;49038;47.600;19.242;2023-10-19T01:38:54;8.40;;;5.60;;
62933;SDS011;49038;47.600;19.242;2023-10-19T01:41:57;11.57;;;6.05;;
62933;SDS011;49038;47.600;19.242;2023-10-19T01:45:00;11.05;;;6.40;;
62933;SDS011;49038;47.600;19.242;2023-10-19T01:48:02;7.75;;;5.55;;
62933;SDS011;49038;47.600;19.242;2023-10-19T01:51:05;9.10;;;6.15;;
62933;SDS011;49038;47.600;19.242;2023-10-19T01:54:07;7.45;;;4.80;;
62933;SDS011;49038;47.600;19.242;2023-10-19T01:57:10;9.52;;;6.45;;
62933;SDS011;49038;47.600;19.242;2023-10-19T02:00:14;9.15;;;5.82;;
62933;SDS011;49038;47.600;19.242;2023-10-19T02:03:25;16.47;;;6.57;;
62933;SDS011;49038;47.600;19.242;2023-10-19T02:06:30;10.35;;;7.22;;
62933;SDS011;49038;47.600;19.242;2023-10-19T02:09:34;9.48;;;5.30;;
62933;SDS011;49038;47.600;19.242;2023-10-19T02:12:36;18.65;;;5.87;;
62933;SDS011;49038;47.600;19.242;2023-10-19T02:15:38;10.35;;;5.78;;
62933;SDS011;49038;47.600;19.242;2023-10-19T02:18:41;8.20;;;5.65;;
62933;SDS011;49038;47.600;19.242;2023-10-19T02:21:44;9.98;;;6.03;;
62933;SDS011;49038;47.600;19.242;2023-10-19T02:24:49;11.73;;;6.90;;
62933;SDS011;49038;47.600;19.242;2023-10-19T02:27:52;12.10;;;6.47;;
62933;SDS011;49038;47.600;19.242;2023-10-19T02:30:54;11.07;;;7.25;;
62933;SDS011;49038;47.600;19.242;2023-10-19T02:33:56;13.90;;;7.78;;
62933;SDS011;49038;47.600;19.242;2023-10-19T02:37:01;11.00;;;7.18;;
62933;SDS011;49038;47.600;19.242;2023-10-19T02:40:04;9.80;;;6.22;;
62933;SDS011;49038;47.600;19.242;2023-10-19T02:43:21;9.40;;;6.70;;
62933;SDS011;49038;47.600;19.242;2023-10-19T02:46:25;11.68;;;7.85;;
62933;SDS011;49038;47.600;19.242;2023-10-19T02:49:28;13.60;;;7.28;;
62933;SDS011;49038;47.600;19.242;2023-10-19T02:52:32;11.23;;;6.45;;
62933;SDS011;49038;47.600;19.242;2023-10-19T02:55:34;15.02;;;8.45;;
62933;SDS011;49038;47.600;19.242;2023-10-19T02:58:37;10.20;;;6.93;;
62933;SDS011;49038;47.600;19.242;2023-10-19T03:01:44;13.45;;;7.00;;
62933;SDS011;49038;47.600;19.242;2023-10-19T03:04:46;16.73;;;7.43;;
62933;SDS011;49038;47.600;19.242;2023-10-19T03:07:48;14.32;;;7.82;;
62933;SDS011;49038;47.600;19.242;2023-10-19T03:10:51;11.27;;;6.60;;
62933;SDS011;49038;47.600;19.242;2023-10-19T03:14:05;11.12;;;7.07;;
62933;SDS011;49038;47.600;19.242;2023-10-19T03:17:08;12.37;;;8.38;;
62933;SDS011;49038;47.600;19.242;2023-10-19T03:20:11;9.75;;;6.47;;
62933;SDS011;49038;47.600;19.242;2023-10-19T03:23:13;12.27;;;7.62;;
62933;SDS011;49038;47.600;19.242;2023-10-19T03:26:16;14.93;;;8.18;;
62933;SDS011;49038;47.600;19.242;2023-10-19T03:29:25;14.23;;;7.93;;
62933;SDS011;49038;47.600;19.242;2023-10-19T03:32:34;11.55;;;7.25;;
62933;SDS011;49038;47.600;19.242;2023-10-19T03:35:37;12.70;;;6.72;;
62933;SDS011;49038;47.600;19.242;2023-10-19T03:38:43;11.05;;;7.18;;
62933;SDS011;49038;47.600;19.242;2023-10-19T03:41:45;12.75;;;6.65;;
62933;SDS011;49038;47.600;19.242;2023-10-19T03:44:48;10.32;;;7.85;;
62933;SDS011;49038;47.600;19.242;2023-10-19T03:47:50;10.32;;;6.87;;
62933;SDS011;49038;47.600;19.242;2023-10-19T03:50:55;10.77;;;6.47;;
62933;SDS011;49038;47.600;19.242;2023-10-19T03:53:58;11.73;;;7.60;;
62933;SDS011;49038;47.600;19.242;2023-10-19T03:57:03;8.70;;;6.30;;
62933;SDS011;49038;47.600;19.242;2023-10-19T04:00:08;10.77;;;6.87;;
62933;SDS011;49038;47.600;19.242;2023-10-19T04:03:18;9.75;;;7.03;;
62933;SDS011;49038;47.600;19.242;2023-10-19T04:06:20;11.95;;;6.43;;
62933;SDS011;49038;47.600;19.242;2023-10-19T04:09:23;9.13;;;6.20;;
62933;SDS011;49038;47.600;19.242;2023-10-19T04:12:31;8.70;;;6.50;;
62933;SDS011;49038;47.600;19.242;2023-10-19T04:15:33;11.52;;;7.55;;
62933;SDS011;49038;47.600;19.242;2023-10-19T04:18:36;7.43;;;5.90;;
62933;SDS011;49038;47.600;19.242;2023-10-19T04:21:40;9.00;;;6.45;;
62933;SDS011;49038;47.600;19.242;2023-10-19T04:24:45;10.98;;;6.97;;
62933;SDS011;49038;47.600;19.242;2023-10-19T04:27:48;9.88;;;5.62;;
62933;SDS011;49038;47.600;19.242;2023-10-19T04:30:51;7.07;;;5.85;;
62933;SDS011;49038;47.600;19.242;2023-10-19T04:33:53;11.23;;;6.30;;
62933;SDS011;49038;47.600;19.242;2023-10-19T04:36:56;9.68;;;6.68;;
62933;SDS011;49038;47.600;19.242;2023-10-19T04:39:59;10.55;;;6.00;;
62933;SDS011;49038;47.600;19.242;2023-10-19T04:43:02;9.50;;;6.82;;
62933;SDS011;49038;47.600;19.242;2023-10-19T04:46:07;8.98;;;5.82;;
62933;SDS011;49038;47.600;19.242;2023-10-19T04:49:14;10.38;;;6.68;;
62933;SDS011;49038;47.600;19.242;2023-10-19T04:52:18;10.00;;;6.20;;
62933;SDS011;49038;47.600;19.242;2023-10-19T04:55:20;7.68;;;5.10;;
62933;SDS011;49038;47.600;19.242;2023-10-19T04:58:22;9.90;;;5.78;;
62933;SDS011;49038;47.600;19.242;2023-10-19T05:01:25;8.00;;;5.30;;
62933;SDS011;49038;47.600;19.242;2023-10-19T05:04:27;8.98;;;6.22;;
62933;SDS011;49038;47.600;19.242;2023-10-19T05:07:31;10.15;;;6.12;;
62933;SDS011;49038;47.600;19.242;2023-10-19T05:10:33;10.98;;;6.90;;
62933;SDS011;49038;47.600;19.242;2023-10-19T05:13:35;8.32;;;5.68;;
62933;SDS011;49038;47.600;19.242;2023-10-19T05:16:38;8.05;;;5.47;;
62933;SDS011;49038;47.600;19.242;2023-10-19T05:19:40;10.27;;;6.22;;
62933;SDS011;49038;47.600;19.242;2023-10-19T05:22:42;8.90;;;5.68;;
62933;SDS011;49038;47.600;19.242;2023-10-19T05:25:44;13.65;;;7.45;;
62933;SDS011;49038;47.600;19.242;2023-10-19T05:28:47;7.80;;;6.15;;
62933;SDS011;49038;47.600;19.242;2023-10-19T05:31:52;9.52;;;5.50;;
62933;SDS011;49038;47.600;19.242;2023-10-19T05:34:56;8.25;;;6.00;;
62933;SDS011;49038;47.600;19.242;2023-10-19T05:38:01;10.88;;;6.62;;
62933;SDS011;49038;47.600;19.242;2023-10-19T05:41:04;8.90;;;6.60;;
62933;SDS011;49038;47.600;19.242;2023-10-19T05:44:07;7.90;;;5.68;;
62933;SDS011;49038;47.600;19.242;2023-10-19T05:47:09;9.45;;;5.95;;
62933;SDS011;49038;47.600;19.242;2023-10-19T05:50:12;9.63;;;6.22;;
62933;SDS011;49038;47.600;19.242;2023-10-19T05:53:17;15.48;;;6.47;;
62933;SDS011;49038;47.600;19.242;2023-10-19T05:56:24;9.13;;;6.80;;
62933;SDS011;49038;47.600;19.242;2023-10-19T05:59:26;11.63;;;7.12;;
62933;SDS011;49038;47.600;19.242;2023-10-19T06:02:31;8.68;;;5.82;;
62933;SDS011;49038;47.600;19.242;2023-10-19T06:05:34;9.98;;;6.37;;
62933;SDS011;49038;47.600;19.242;2023-10-19T06:08:36;8.10;;;6.00;;
62933;SDS011;49038;47.600;19.242;2023-10-19T06:11:39;9.73;;;6.28;;
62933;SDS011;49038;47.600;19.242;2023-10-19T06:14:44;10.45;;;6.90;;
62933;SDS011;49038;47.600;19.242;2023-10-19T06:17:47;8.77;;;6.60;;
62933;SDS011;49038;47.600;19.242;2023-10-19T06:20:50;10.93;;;7.47;;
62933;SDS011;49038;47.600;19.242;2023-10-19T06:23:53;15.73;;;8.95;;
62933;SDS011;49038;47.600;19.242;2023-10-19T06:26:56;10.70;;;7.30;;
62933;SDS011;49038;47.600;19.242;2023-10-19T06:29:58;9.73;;;6.05;;
62933;SDS011;49038;47.600;19.242;2023-10-19T06:33:01;10.05;;;6.75;;
62933;SDS011;49038;47.600;19.242;2023-10-19T06:36:04;10.23;;;7.30;;
62933;SDS011;49038;47.600;19.242;2023-10-19T06:39:06;16.48;;;7.18;;
62933;SDS011;49038;47.600;19.242;2023-10-19T06:42:10;9.55;;;6.03;;
62933;SDS011;49038;47.600;19.242;2023-10-19T06:45:16;9.00;;;5.97;;
62933;SDS011;49038;47.600;19.242;2023-10-19T06:48:21;11.12;;;7.20;;
62933;SDS011;49038;47.600;19.242;2023-10-19T06:51:23;10.65;;;5.57;;
62933;SDS011;49038;47.600;19.242;2023-10-19T06:54:25;8.57;;;5.78;;
62933;SDS011;49038;47.600;19.242;2023-10-19T06:57:30;12.07;;;6.47;;
62933;SDS011;49038;47.600;19.242;2023-10-19T07:00:34;9.70;;;6.15;;
62933;SDS011;49038;47.600;19.242;2023-10-19T07:03:38;10.45;;;6.18;;
62933;SDS011;49038;47.600;19.242;2023-10-19T07:06:40;11.27;;;6.80;;
62933;SDS011;49038;47.600;19.242;2023-10-19T07:09:43;16.73;;;10.05;;
62933;SDS011;49038;47.600;19.242;2023-10-19T07:12:46;15.68;;;8.75;;
62933;SDS011;49038;47.600;19.242;2023-10-19T07:15:50;9.43;;;6.87;;
62933;SDS011;49038;47.600;19.242;2023-10-19T07:18:53;11.25;;;7.30;;
62933;SDS011;49038;47.600;19.242;2023-10-19T07:21:56;11.38;;;6.40;;
62933;SDS011;49038;47.600;19.242;2023-10-19T07:25:06;8.27;;;5.82;;
62933;SDS011;49038;47.600;19.242;2023-10-19T07:28:13;17.80;;;10.35;;
62933;SDS011;49038;47.600;19.242;2023-10-19T07:31:16;8.32;;;6.28;;
62933;SDS011;49038;47.600;19.242;2023-10-19T07:34:19;13.75;;;8.82;;
62933;SDS011;49038;47.600;19.242;2023-10-19T07:37:27;13.57;;;9.18;;
62933;SDS011;49038;47.600;19.242;2023-10-19T07:40:30;12.20;;;6.12;;
62933;SDS011;49038;47.600;19.242;2023-10-19T07:43:34;8.50;;;6.00;;
62933;SDS011;49038;47.600;19.242;2023-10-19T07:46:36;11.15;;;6.03;;
62933;SDS011;49038;47.600;19.242;2023-10-19T07:49:38;13.15;;;6.50;;
62933;SDS011;49038;47.600;19.242;2023-10-19T07:52:41;14.73;;;7.80;;
62933;SDS011;49038;47.600;19.242;2023-10-19T07:55:48;14.43;;;6.93;;
62933;SDS011;49038;47.600;19.242;2023-10-19T07:58:50;15.40;;;7.53;;
62933;SDS011;49038;47.600;19.242;2023-10-19T08:01:53;26.45;;;11.25;;
62933;SDS011;49038;47.600;19.242;2023-10-19T08:04:55;18.98;;;9.98;;
62933;SDS011;49038;47.600;19.242;2023-10-19T08:07:58;15.80;;;8.02;;
62933;SDS011;49038;47.600;19.242;2023-10-19T08:11:02;11.23;;;6.15;;
62933;SDS011;49038;47.600;19.242;2023-10-19T08:14:04;10.68;;;5.55;;
62933;SDS011;49038;47.600;19.242;2023-10-19T08:17:07;9.75;;;6.62;;
62933;SDS011;49038;47.600;19.242;2023-10-19T08:20:11;8.88;;;6.60;;
62933;SDS011;49038;47.600;19.242;2023-10-19T08:23:18;9.45;;;6.45;;
62933;SDS011;49038;47.600;19.242;2023-10-19T08:26:26;22.20;;;10.18;;
62933;SDS011;49038;47.600;19.242;2023-10-19T08:29:29;18.45;;;9.88;;
62933;SDS011;49038;47.600;19.242;2023-10-19T08:32:32;29.80;;;11.60;;
62933;SDS011;49038;47.600;19.242;2023-10-19T08:35:34;8.68;;;5.90;;
62933;SDS011;49038;47.600;19.242;2023-10-19T08:38:37;12.48;;;7.65;;
62933;SDS011;49038;47.600;19.242;2023-10-19T08:41:40;11.23;;;7.70;;
62933;SDS011;49038;47.600;19.242;2023-10-19T08:44:42;12.02;;;7.68;;
62933;SDS011;49038;47.600;19.242;2023-10-19T08:47:55;15.50;;;8.20;;
62933;SDS011;49038;47.600;19.242;2023-10-19T08:51:02;12.63;;;6.68;;
62933;SDS011;49038;47.600;19.242;2023-10-19T08:54:05;17.20;;;9.02;;
62933;SDS011;49038;47.600;19.242;2023-10-19T08:57:08;12.75;;;7.80;;
62933;SDS011;49038;47.600;19.242;2023-10-19T09:00:10;15.95;;;8.15;;
62933;SDS011;49038;47.600;19.242;2023-10-19T09:03:13;15.95;;;8.30;;
62933;SDS011;49038;47.600;19.242;2023-10-19T09:06:16;20.20;;;9.32;;
62933;SDS011;49038;47.600;19.242;2023-10-19T09:09:18;17.12;;;8.00;;
62933;SDS011;49038;47.600;19.242;2023-10-19T09:12:27;15.50;;;8.43;;
62933;SDS011;49038;47.600;19.242;2023-10-19T09:15:29;16.80;;;7.95;;
62933;SDS011;49038;47.600;19.242;2023-10-19T09:18:34;22.58;;;11.75;;
62933;SDS011;49038;47.600;19.242;2023-10-19T09:21:36;12.10;;;6.95;;
62933;SDS011;49038;47.600;19.242;2023-10-19T09:24:42;24.00;;;8.65;;
62933;SDS011;49038;47.600;19.242;2023-10-19T09:27:45;12.23;;;8.57;;
62933;SDS011;49038;47.600;19.242;2023-10-19T09:30:47;16.85;;;8.55;;
62933;SDS011;49038;47.600;19.242;2023-10-19T09:33:50;12.68;;;7.37;;
62933;SDS011;49038;47.600;19.242;2023-10-19T09:36:55;10.95;;;6.75;;
62933;SDS011;49038;47.600;19.242;2023-10-19T09:39:57;13.88;;;7.37;;
62933;SDS011;49038;47.600;19.242;2023-10-19T09:43:02;11.43;;;6.28;;
62933;SDS011;49038;47.600;19.242;2023-10-19T09:46:09;11.98;;;6.90;;
62933;SDS011;49038;47.600;19.242;2023-10-19T09:49:14;12.15;;;7.45;;
62933;SDS011;49038;47.600;19.242;2023-10-19T09:52:16;11.38;;;5.82;;
62933;SDS011;49038;47.600;19.242;2023-10-19T09:55:22;11.48;;;5.93;;
62933;SDS011;49038;47.600;19.242;2023-10-19T09:58:38;11.52;;;6.07;;
62933;SDS011;49038;47.600;19.242;2023-10-19T10:02:31;16.62;;;7.93;;
62933;SDS011;49038;47.600;19.242;2023-10-19T10:08:44;15.68;;;8.15;;
62933;SDS011;49038;47.600;19.242;2023-10-19T10:11:51;17.80;;;8.70;;
62933;SDS011;49038;47.600;19.242;2023-10-19T10:18:13;13.65;;;8.40;;
62933;SDS011;49038;47.600;19.242;2023-10-19T10:21:18;13.40;;;7.82;;
62933;SDS011;49038;47.600;19.242;2023-10-19T10:24:22;14.55;;;8.27;;
62933;SDS011;49038;47.600;19.242;2023-10-19T10:27:24;18.48;;;8.55;;
62933;SDS011;49038;47.600;19.242;2023-10-19T10:30:27;18.92;;;8.35;;
62933;SDS011;49038;47.600;19.242;2023-10-19T10:33:37;14.80;;;7.68;;
62933;SDS011;49038;47.600;19.242;2023-10-19T10:36:59;15.05;;;8.68;;
62933;SDS011;49038;47.600;19.242;2023-10-19T10:40:06;14.45;;;8.10;;
62933;SDS011;49038;47.600;19.242;2023-10-19T10:43:08;19.12;;;9.80;;
62933;SDS011;49038;47.600;19.242;2023-10-19T10:46:12;15.65;;;9.10;;
62933;SDS011;49038;47.600;19.242;2023-10-19T10:49:15;17.20;;;8.60;;
62933;SDS011;49038;47.600;19.242;2023-10-19T10:55:31;14.35;;;8.55;;
62933;SDS011;49038;47.600;19.242;2023-10-19T10:58:34;19.00;;;7.93;;
62933;SDS011;49038;47.600;19.242;2023-10-19T11:01:37;16.12;;;8.18;;
62933;SDS011;49038;47.600;19.242;2023-10-19T11:04:43;11.50;;;8.25;;
62933;SDS011;49038;47.600;19.242;2023-10-19T11:08:06;15.10;;;8.82;;
62933;SDS011;49038;47.600;19.242;2023-10-19T11:11:09;16.60;;;9.68;;
62933;SDS011;49038;47.600;19.242;2023-10-19T11:14:14;17.42;;;9.52;;
62933;SDS011;49038;47.600;19.242;2023-10-19T11:17:17;12.93;;;7.12;;
62933;SDS011;49038;47.600;19.242;2023-10-19T11:20:21;20.05;;;10.63;;
62933;SDS011;49038;47.600;19.242;2023-10-19T11:23:37;19.98;;;10.80;;
62933;SDS011;49038;47.600;19.242;2023-10-19T11:26:40;17.48;;;9.32;;
62933;SDS011;49038;47.600;19.242;2023-10-19T11:29:56;22.05;;;10.32;;
62933;SDS011;49038;47.600;19.242;2023-10-19T11:33:01;15.20;;;8.68;;
62933;SDS011;49038;47.600;19.242;2023-10-19T11:36:04;17.48;;;9.48;;
62933;SDS011;49038;47.600;19.242;2023-10-19T11:39:07;18.85;;;8.38;;
62933;SDS011;49038;47.600;19.242;2023-10-19T11:42:13;27.60;;;10.10;;
62933;SDS011;49038;47.600;19.242;2023-10-19T11:45:16;20.95;;;9.60;;
62933;SDS011;49038;47.600;19.242;2023-10-19T11:48:19;16.80;;;9.85;;
62933;SDS011;49038;47.600;19.242;2023-10-19T11:51:22;19.90;;;9.23;;
62933;SDS011;49038;47.600;19.242;2023-10-19T11:54:24;13.35;;;6.20;;
62933;SDS011;49038;47.600;19.242;2023-10-19T11:57:28;18.10;;;9.35;;
62933;SDS011;49038;47.600;19.242;2023-10-19T12:00:30;16.25;;;8.50;;
62933;SDS011;49038;47.600;19.242;2023-10-19T12:03:35;25.98;;;12.02;;
62933;SDS011;49038;47.600;19.242;2023-10-19T12:06:39;29.40;;;12.07;;
62933;SDS011;49038;47.600;19.242;2023-10-19T12:09:41;14.32;;;8.13;;
62933;SDS011;49038;47.600;19.242;2023-10-19T12:12:43;22.05;;;8.18;;
62933;SDS011;49038;47.600;19.242;2023-10-19T12:16:01;19.35;;;9.98;;
62933;SDS011;49038;47.600;19.242;2023-10-19T12:19:07;15.90;;;9.20;;
62933;SDS011;49038;47.600;19.242;2023-10-19T12:22:09;16.17;;;9.57;;
62933;SDS011;49038;47.600;19.242;2023-10-19T12:25:11;18.25;;;10.68;;
62933;SDS011;49038;47.600;19.242;2023-10-19T12:28:13;16.48;;;9.30;;
62933;SDS011;49038;47.600;19.242;2023-10-19T12:31:16;16.30;;;9.43;;
62933;SDS011;49038;47.600;19.242;2023-10-19T12:34:21;19.23;;;10.02;;
62933;SDS011;49038;47.600;19.242;2023-10-19T12:37:24;15.55;;;8.73;;
62933;SDS011;49038;47.600;19.242;2023-10-19T12:40:27;15.52;;;9.60;;
62933;SDS011;49038;47.600;19.242;2023-10-19T12:43:30;19.17;;;9.23;;
62933;SDS011;49038;47.600;19.242;2023-10-19T12:46:32;23.35;;;9.27;;
62933;SDS011;49038;47.600;19.242;2023-10-19T12:49:42;20.90;;;11.75;;
62933;SDS011;49038;47.600;19.242;2023-10-19T12:52:47;13.95;;;8.73;;
62933;SDS011;49038;47.600;19.242;2023-10-19T12:55:49;14.68;;;7.90;;
62933;SDS011;49038;47.600;19.242;2023-10-19T12:58:51;16.35;;;8.68;;
62933;SDS011;49038;47.600;19.242;2023-10-19T13:01:54;16.15;;;8.70;;
62933;SDS011;49038;47.600;19.242;2023-10-19T13:05:00;16.98;;;10.05;;
62933;SDS011;49038;47.600;19.242;2023-10-19T13:08:02;27.50;;;13.35;;
62933;SDS011;49038;47.600;19.242;2023-10-19T13:11:17;16.92;;;10.02;;
62933;SDS011;49038;47.600;19.242;2023-10-19T13:14:20;17.10;;;8.43;;
62933;SDS011;49038;47.600;19.242;2023-10-19T13:17:23;14.55;;;8.00;;
62933;SDS011;49038;47.600;19.242;2023-10-19T13:20:27;14.43;;;8.60;;
62933;SDS011;49038;47.600;19.242;2023-10-19T13:23:35;18.15;;;10.13;;
62933;SDS011;49038;47.600;19.242;2023-10-19T13:26:38;16.42;;;8.57;;
62933;SDS011;49038;47.600;19.242;2023-10-19T13:29:42;16.48;;;9.50;;
62933;SDS011;49038;47.600;19.242;2023-10-19T13:32:44;20.52;;;11.20;;
62933;SDS011;49038;47.600;19.242;2023-10-19T13:35:48;19.85;;;8.52;;
62933;SDS011;49038;47.600;19.242;2023-10-19T13:38:50;15.95;;;8.93;;
62933;SDS011;49038;47.600;19.242;2023-10-19T13:41:52;18.05;;;10.10;;
62933;SDS011;49038;47.600;19.242;2023-10-19T13:44:55;19.70;;;10.48;;
62933;SDS011;49038;47.600;19.242;2023-10-19T13:47:58;31.50;;;14.45;;
62933;SDS011;49038;47.600;19.242;2023-10-19T13:51:00;20.25;;;11.23;;
62933;SDS011;49038;47.600;19.242;2023-10-19T13:54:07;19.85;;;9.20;;
62933;SDS011;49038;47.600;19.242;2023-10-19T13:57:10;20.42;;;9.75;;
62933;SDS011;49038;47.600;19.242;2023-10-19T14:00:12;20.88;;;10.77;;
62933;SDS011;49038;47.600;19.242;2023-10-19T14:03:21;20.42;;;10.55;;
62933;SDS011;49038;47.600;19.242;2023-10-19T14:06:24;18.60;;;9.77;;
62933;SDS011;49038;47.600;19.242;2023-10-19T14:09:27;27.48;;;13.82;;
62933;SDS011;49038;47.600;19.242;2023-10-19T14:12:30;28.73;;;12.88;;
62933;SDS011;49038;47.600;19.242;2023-10-19T14:15:33;20.33;;;10.93;;
62933;SDS011;49038;47.600;19.242;2023-10-19T14:18:36;23.25;;;11.23;;
62933;SDS011;49038;47.600;19.242;2023-10-19T14:21:39;21.85;;;10.55;;
62933;SDS011;49038;47.600;19.242;2023-10-19T14:24:42;23.67;;;11.00;;
62933;SDS011;49038;47.600;19.242;2023-10-19T14:27:45;27.60;;;13.35;;
62933;SDS011;49038;47.600;19.242;2023-10-19T14:30:48;25.95;;;11.90;;
62933;SDS011;49038;47.600;19.242;2023-10-19T14:33:54;27.37;;;11.77;;
62933;SDS011;49038;47.600;19.242;2023-10-19T14:36:57;21.60;;;10.18;;
62933;SDS011;49038;47.600;19.242;2023-10-19T14:39:59;16.58;;;9.05;;
62933;SDS011;49038;47.600;19.242;2023-10-19T14:43:01;22.20;;;10.68;;
62933;SDS011;49038;47.600;19.242;2023-10-19T14:46:07;26.48;;;10.63;;
62933;SDS011;49038;47.600;19.242;2023-10-19T14:49:09;21.55;;;10.25;;
62933;SDS011;49038;47.600;19.242;2023-10-19T14:52:11;23.30;;;11.50;;
62933;SDS011;49038;47.600;19.242;2023-10-19T14:55:14;27.05;;;11.57;;
62933;SDS011;49038;47.600;19.242;2023-10-19T14:58:17;27.98;;;13.25;;
62933;SDS011;49038;47.600;19.242;2023-10-19T15:01:23;24.12;;;12.00;;
62933;SDS011;49038;47.600;19.242;2023-10-19T15:04:28;19.42;;;9.90;;
62933;SDS011;49038;47.600;19.242;2023-10-19T15:07:30;18.45;;;10.25;;
62933;SDS011;49038;47.600;19.242;2023-10-19T15:10:33;28.00;;;10.75;;
62933;SDS011;49038;47.600;19.242;2023-10-19T15:13:36;23.75;;;12.20;;
62933;SDS011;49038;47.600;19.242;2023-10-19T15:16:38;31.77;;;14.82;;
62933;SDS011;49038;47.600;19.242;2023-10-19T15:19:41;21.33;;;10.98;;
62933;SDS011;49038;47.600;19.242;2023-10-19T15:22:44;30.33;;;13.10;;
62933;SDS011;49038;47.600;19.242;2023-10-19T15:25:46;28.75;;;13.70;;
62933;SDS011;49038;47.600;19.242;2023-10-19T15:28:49;25.98;;;12.43;;
62933;SDS011;49038;47.600;19.242;2023-10-19T15:31:51;27.13;;;13.15;;
62933;SDS011;49038;47.600;19.242;2023-10-19T15:34:54;23.00;;;11.40;;
62933;SDS011;49038;47.600;19.242;2023-10-19T15:37:56;20.67;;;9.82;;
62933;SDS011;49038;47.600;19.242;2023-10-19T15:40:59;25.52;;;11.45;;
62933;SDS011;49038;47.600;19.242;2023-10-19T15:44:01;26.08;;;11.35;;
62933;SDS011;49038;47.600;19.242;2023-10-19T15:47:05;23.80;;;11.82;;
62933;SDS011;49038;47.600;19.242;2023-10-19T15:50:20;21.10;;;10.00;;
62933;SDS011;49038;47.600;19.242;2023-10-19T15:53:23;22.73;;;11.32;;
62933;SDS011;49038;47.600;19.242;2023-10-19T15:56:26;15.50;;;8.65;;
62933;SDS011;49038;47.600;19.242;2023-10-19T15:59:29;26.83;;;10.45;;
62933;SDS011;49038;47.600;19.242;2023-10-19T16:02:32;22.35;;;10.90;;
62933;SDS011;49038;47.600;19.242;2023-10-19T16:05:34;20.30;;;10.65;;
62933;SDS011;49038;47.600;19.242;2023-10-19T16:08:38;25.17;;;11.05;;
62933;SDS011;49038;47.600;19.242;2023-10-19T16:11:48;26.52;;;11.88;;
62933;SDS011;49038;47.600;19.242;2023-10-19T16:14:53;30.67;;;14.05;;
62933;SDS011;49038;47.600;19.242;2023-10-19T16:17:55;25.30;;;13.27;;
62933;SDS011;49038;47.600;19.242;2023-10-19T16:20:58;28.85;;;13.07;;
62933;SDS011;49038;47.600;19.242;2023-10-19T16:24:00;28.10;;;13.10;;
62933;SDS011;49038;47.600;19.242;2023-10-19T16:27:03;24.77;;;12.48;;
62933;SDS011;49038;47.600;19.242;2023-10-19T16:30:05;21.30;;;11.15;;
62933;SDS011;49038;47.600;19.242;2023-10-19T16:33:15;15.18;;;9.07;;
62933;SDS011;49038;47.600;19.242;2023-10-19T16:36:17;24.60;;;10.98;;
62933;SDS011;49038;47.600;19.242;2023-10-19T16:39:20;19.37;;;9.50;;
62933;SDS011;49038;47.600;19.242;2023-10-19T16:42:26;22.62;;;10.45;;
62933;SDS011;49038;47.600;19.242;2023-10-19T16:45:29;25.98;;;12.90;;
62933;SDS011;49038;47.600;19.242;2023-10-19T16:48:31;23.08;;;11.00;;
62933;SDS011;49038;47.600;19.242;2023-10-19T16:51:37;17.17;;;11.07;;
62933;SDS011;49038;47.600;19.242;2023-10-19T16:54:42;21.67;;;11.18;;
62933;SDS011;49038;47.600;19.242;2023-10-19T16:57:46;22.25;;;10.88;;
62933;SDS011;49038;47.600;19.242;2023-10-19T17:00:49;19.62;;;10.13;;
62933;SDS011;49038;47.600;19.242;2023-10-19T17:03:53;23.30;;;11.20;;
62933;SDS011;49038;47.600;19.242;2023-10-19T17:06:59;16.37;;;9.43;;
62933;SDS011;49038;47.600;19.242;2023-10-19T17:10:01;18.30;;;10.18;;
62933;SDS011;49038;47.600;19.242;2023-10-19T17:13:08;19.05;;;11.95;;
62933;SDS011;49038;47.600;19.242;2023-10-19T17:16:10;16.48;;;10.60;;
62933;SDS011;49038;47.600;19.242;2023-10-19T17:19:14;20.37;;;11.55;;
62933;SDS011;49038;47.600;19.242;2023-10-19T17:22:17;18.12;;;9.82;;
62933;SDS011;49038;47.600;19.242;2023-10-19T17:25:21;20.33;;;10.20;;
62933;SDS011;49038;47.600;19.242;2023-10-19T17:28:26;19.45;;;10.35;;
62933;SDS011;49038;47.600;19.242;2023-10-19T17:31:29;21.05;;;11.07;;
62933;SDS011;49038;47.600;19.242;2023-10-19T17:34:32;23.52;;;13.27;;
62933;SDS011;49038;47.600;19.242;2023-10-19T17:37:36;21.62;;;10.57;;
62933;SDS011;49038;47.600;19.242;2023-10-19T17:40:39;15.15;;;8.15;;
62933;SDS011;49038;47.600;19.242;2023-10-19T17:43:42;16.27;;;9.13;;
62933;SDS011;49038;47.600;19.242;2023-10-19T17:46:46;18.98;;;9.07;;
62933;SDS011;49038;47.600;19.242;2023-10-19T17:49:51;19.02;;;10.07;;
62933;SDS011;49038;47.600;19.242;2023-10-19T17:52:53;17.40;;;10.23;;
62933;SDS011;49038;47.600;19.242;2023-10-19T17:55:56;17.55;;;9.43;;
62933;SDS011;49038;47.600;19.242;2023-10-19T17:58:59;16.25;;;9.90;;
62933;SDS011;49038;47.600;19.242;2023-10-19T18:02:03;15.52;;;9.07;;
62933;SDS011;49038;47.600;19.242;2023-10-19T18:05:09;14.45;;;8.93;;
62933;SDS011;49038;47.600;19.242;2023-10-19T18:08:14;16.48;;;9.75;;
62933;SDS011;49038;47.600;19.242;2023-10-19T18:11:17;14.82;;;8.40;;